sensor_id;sensor_type;location;lat;lon;timestamp;P1;durP1;ratioP1;P2;durP2;ratioP2
3849;SDS011;1940;51.052;13.678;2023-10-09T00:01:02;5.23;;;3.50;;
3849;SDS011;1940;51.052;13.678;2023-10-09T00:03:47;11.00;;;4.13;;
3849;SDS011;1940;51.052;13.678;2023-10-09T00:06:16;5.43;;;3.70;;
3849;SDS011;1940;51.052;13.678;2023-10-09T00:08:48;8.50;;;4.17;;
3849;SDS011;1940;51.052;13.678;2023-10-09T00:11:18;8.40;;;4.00;;
3849;SDS011;1940;51.052;13.678;2023-10-09T00:13:51;6.80;;;4.30;;
3849;SDS011;1940;51.052;13.678;2023-10-09T00:16:22;7.13;;;4.20;;
3849;SDS011;1940;51.052;13.678;2023-10-09T00:18:57;9.23;;;4.30;;
3849;SDS011;1940;51.052;13.678;2023-10-09T00:21:46;10.90;;;4.60;;
3849;SDS011;1940;51.052;13.678;2023-10-09T00:24:13;7.80;;;4.07;;
3849;SDS011;1940;51.052;13.678;2023-10-09T00:26:44;8.27;;;4.30;;
3849;SDS011;1940;51.052;13.678;2023-10-09T00:29:11;6.87;;;4.20;;
3849;SDS011;1940;51.052;13.678;2023-10-09T00:31:41;7.87;;;4.23;;
3849;SDS011;1940;51.052;13.678;2023-10-09T00:34:15;7.60;;;4.03;;
3849;SDS011;1940;51.052;13.678;2023-10-09T00:36:47;6.20;;;3.93;;
3849;SDS011;1940;51.052;13.678;2023-10-09T00:39:19;5.70;;;3.40;;
3849;SDS011;1940;51.052;13.678;2023-10-09T00:42:00;8.63;;;4.00;;
3849;SDS011;1940;51.052;13.678;2023-10-09T00:44:26;9.20;;;3.80;;
3849;SDS011;1940;51.052;13.678;2023-10-09T00:47:06;8.57;;;3.67;;
3849;SDS011;1940;51.052;13.678;2023-10-09T00:49:56;6.53;;;4.00;;
3849;SDS011;1940;51.052;13.678;2023-10-09T00:52:32;9.17;;;3.70;;
3849;SDS011;1940;51.052;13.678;2023-10-09T00:55:08;10.57;;;3.70;;
3849;SDS011;1940;51.052;13.678;2023-10-09T00:57:46;6.50;;;3.80;;
3849;SDS011;1940;51.052;13.678;2023-10-09T01:00:15;7.07;;;3.97;;
3849;SDS011;1940;51.052;13.678;2023-10-09T01:03:11;7.53;;;4.00;;
3849;SDS011;1940;51.052;13.678;2023-10-09T01:05:54;5.37;;;3.57;;
3849;SDS011;1940;51.052;13.678;2023-10-09T01:08:39;7.43;;;4.27;;
3849;SDS011;1940;51.052;13.678;2023-10-09T01:11:06;11.90;;;4.00;;
3849;SDS011;1940;51.052;13.678;2023-10-09T01:13:38;8.60;;;4.40;;
3849;SDS011;1940;51.052;13.678;2023-10-09T01:16:14;7.20;;;4.00;;
3849;SDS011;1940;51.052;13.678;2023-10-09T01:18:47;8.90;;;4.40;;
3849;SDS011;1940;51.052;13.678;2023-10-09T01:21:16;10.40;;;4.37;;
3849;SDS011;1940;51.052;13.678;2023-10-09T01:23:43;6.83;;;4.17;;
3849;SDS011;1940;51.052;13.678;2023-10-09T01:26:28;8.83;;;3.73;;
3849;SDS011;1940;51.052;13.678;2023-10-09T01:29:00;5.90;;;4.20;;
3849;SDS011;1940;51.052;13.678;2023-10-09T01:31:26;15.30;;;4.90;;
3849;SDS011;1940;51.052;13.678;2023-10-09T01:33:52;9.83;;;4.53;;
3849;SDS011;1940;51.052;13.678;2023-10-09T01:36:19;8.97;;;5.10;;
3849;SDS011;1940;51.052;13.678;2023-10-09T01:38:56;11.53;;;4.80;;
3849;SDS011;1940;51.052;13.678;2023-10-09T01:41:33;7.90;;;4.70;;
3849;SDS011;1940;51.052;13.678;2023-10-09T01:43:59;7.27;;;4.50;;
3849;SDS011;1940;51.052;13.678;2023-10-09T01:46:35;9.43;;;4.77;;
3849;SDS011;1940;51.052;13.678;2023-10-09T01:49:00;8.27;;;4.30;;
3849;SDS011;1940;51.052;13.678;2023-10-09T01:51:33;9.73;;;4.40;;
3849;SDS011;1940;51.052;13.678;2023-10-09T01:54:01;8.53;;;4.63;;
3849;SDS011;1940;51.052;13.678;2023-10-09T01:56:27;13.30;;;4.23;;
3849;SDS011;1940;51.052;13.678;2023-10-09T01:58:53;7.50;;;4.03;;
3849;SDS011;1940;51.052;13.678;2023-10-09T02:01:22;9.30;;;4.47;;
3849;SDS011;1940;51.052;13.678;2023-10-09T02:03:48;6.10;;;3.60;;
3849;SDS011;1940;51.052;13.678;2023-10-09T02:06:16;6.43;;;3.73;;
3849;SDS011;1940;51.052;13.678;2023-10-09T02:08:50;7.27;;;3.90;;
3849;SDS011;1940;51.052;13.678;2023-10-09T02:11:19;5.90;;;4.27;;
3849;SDS011;1940;51.052;13.678;2023-10-09T02:13:50;11.80;;;4.77;;
3849;SDS011;1940;51.052;13.678;2023-10-09T02:16:26;10.27;;;4.47;;
3849;SDS011;1940;51.052;13.678;2023-10-09T02:18:54;6.60;;;4.33;;
3849;SDS011;1940;51.052;13.678;2023-10-09T02:21:24;7.37;;;4.60;;
3849;SDS011;1940;51.052;13.678;2023-10-09T02:24:04;8.43;;;4.00;;
3849;SDS011;1940;51.052;13.678;2023-10-09T02:26:32;9.13;;;4.93;;
3849;SDS011;1940;51.052;13.678;2023-10-09T02:29:04;7.70;;;4.40;;
3849;SDS011;1940;51.052;13.678;2023-10-09T02:31:29;10.57;;;4.40;;
3849;SDS011;1940;51.052;13.678;2023-10-09T02:34:16;7.30;;;4.30;;
3849;SDS011;1940;51.052;13.678;2023-10-09T02:36:46;6.73;;;3.90;;
3849;SDS011;1940;51.052;13.678;2023-10-09T02:39:22;7.60;;;4.40;;
3849;SDS011;1940;51.052;13.678;2023-10-09T02:41:55;8.00;;;4.00;;
3849;SDS011;1940;51.052;13.678;2023-10-09T02:44:37;6.70;;;3.87;;
3849;SDS011;1940;51.052;13.678;2023-10-09T02:47:10;7.20;;;4.10;;
3849;SDS011;1940;51.052;13.678;2023-10-09T02:49:42;7.60;;;4.40;;
3849;SDS011;1940;51.052;13.678;2023-10-09T02:52:08;9.60;;;4.53;;
3849;SDS011;1940;51.052;13.678;2023-10-09T02:54:42;6.97;;;4.03;;
3849;SDS011;1940;51.052;13.678;2023-10-09T02:57:11;6.00;;;4.00;;
3849;SDS011;1940;51.052;13.678;2023-10-09T02:59:41;8.43;;;4.20;;
3849;SDS011;1940;51.052;13.678;2023-10-09T03:02:09;10.07;;;4.73;;
3849;SDS011;1940;51.052;13.678;2023-10-09T03:04:36;6.27;;;4.10;;
3849;SDS011;1940;51.052;13.678;2023-10-09T03:07:04;8.63;;;4.40;;
3849;SDS011;1940;51.052;13.678;2023-10-09T03:09:29;8.63;;;4.00;;
3849;SDS011;1940;51.052;13.678;2023-10-09T03:11:57;7.60;;;4.33;;
3849;SDS011;1940;51.052;13.678;2023-10-09T03:14:35;7.07;;;4.20;;
3849;SDS011;1940;51.052;13.678;2023-10-09T03:17:06;7.43;;;4.27;;
3849;SDS011;1940;51.052;13.678;2023-10-09T03:19:36;10.87;;;4.30;;
3849;SDS011;1940;51.052;13.678;2023-10-09T03:22:07;12.03;;;4.50;;
3849;SDS011;1940;51.052;13.678;2023-10-09T03:24:35;8.47;;;4.23;;
3849;SDS011;1940;51.052;13.678;2023-10-09T03:27:08;7.60;;;4.63;;
3849;SDS011;1940;51.052;13.678;2023-10-09T03:29:33;9.83;;;4.63;;
3849;SDS011;1940;51.052;13.678;2023-10-09T03:31:59;8.43;;;4.77;;
3849;SDS011;1940;51.052;13.678;2023-10-09T03:34:25;8.97;;;5.03;;
3849;SDS011;1940;51.052;13.678;2023-10-09T03:36:50;7.60;;;4.57;;
3849;SDS011;1940;51.052;13.678;2023-10-09T03:39:28;6.00;;;4.20;;
3849;SDS011;1940;51.052;13.678;2023-10-09T03:42:06;6.93;;;4.50;;
3849;SDS011;1940;51.052;13.678;2023-10-09T03:44:40;11.67;;;4.77;;
3849;SDS011;1940;51.052;13.678;2023-10-09T03:47:06;11.40;;;4.50;;
3849;SDS011;1940;51.052;13.678;2023-10-09T03:49:35;8.10;;;4.93;;
3849;SDS011;1940;51.052;13.678;2023-10-09T03:52:04;8.53;;;5.27;;
3849;SDS011;1940;51.052;13.678;2023-10-09T03:54:31;7.97;;;4.90;;
3849;SDS011;1940;51.052;13.678;2023-10-09T03:56:59;8.17;;;4.50;;
3849;SDS011;1940;51.052;13.678;2023-10-09T03:59:24;8.30;;;4.57;;
3849;SDS011;1940;51.052;13.678;2023-10-09T04:01:55;6.30;;;4.20;;
3849;SDS011;1940;51.052;13.678;2023-10-09T04:04:23;11.43;;;6.03;;
3849;SDS011;1940;51.052;13.678;2023-10-09T04:06:49;9.23;;;5.10;;
3849;SDS011;1940;51.052;13.678;2023-10-09T04:09:16;8.87;;;4.83;;
3849;SDS011;1940;51.052;13.678;2023-10-09T04:11:45;10.53;;;5.50;;
3849;SDS011;1940;51.052;13.678;2023-10-09T04:14:22;6.73;;;4.53;;
3849;SDS011;1940;51.052;13.678;2023-10-09T04:16:58;9.27;;;5.30;;
3849;SDS011;1940;51.052;13.678;2023-10-09T04:19:45;10.70;;;5.10;;
3849;SDS011;1940;51.052;13.678;2023-10-09T04:22:34;7.90;;;4.97;;
3849;SDS011;1940;51.052;13.678;2023-10-09T04:25:07;7.60;;;5.67;;
3849;SDS011;1940;51.052;13.678;2023-10-09T04:27:39;6.87;;;4.90;;
3849;SDS011;1940;51.052;13.678;2023-10-09T04:30:05;10.30;;;5.10;;
3849;SDS011;1940;51.052;13.678;2023-10-09T04:32:32;7.97;;;4.83;;
3849;SDS011;1940;51.052;13.678;2023-10-09T04:34:59;8.07;;;5.00;;
3849;SDS011;1940;51.052;13.678;2023-10-09T04:37:44;10.10;;;5.33;;
3849;SDS011;1940;51.052;13.678;2023-10-09T04:40:17;6.80;;;5.00;;
3849;SDS011;1940;51.052;13.678;2023-10-09T04:43:02;14.07;;;5.70;;
3849;SDS011;1940;51.052;13.678;2023-10-09T04:45:31;8.20;;;5.57;;
3849;SDS011;1940;51.052;13.678;2023-10-09T04:48:22;17.13;;;5.33;;
3849;SDS011;1940;51.052;13.678;2023-10-09T04:50:58;9.63;;;6.17;;
3849;SDS011;1940;51.052;13.678;2023-10-09T04:53:45;10.50;;;6.47;;
3849;SDS011;1940;51.052;13.678;2023-10-09T04:56:34;8.37;;;5.57;;
3849;SDS011;1940;51.052;13.678;2023-10-09T04:59:16;8.43;;;5.17;;
3849;SDS011;1940;51.052;13.678;2023-10-09T05:01:43;13.73;;;6.80;;
3849;SDS011;1940;51.052;13.678;2023-10-09T05:04:11;19.23;;;7.97;;
3849;SDS011;1940;51.052;13.678;2023-10-09T05:07:00;12.60;;;7.43;;
3849;SDS011;1940;51.052;13.678;2023-10-09T05:09:45;18.57;;;7.33;;
3849;SDS011;1940;51.052;13.678;2023-10-09T05:12:29;12.80;;;7.10;;
3849;SDS011;1940;51.052;13.678;2023-10-09T05:14:55;15.00;;;7.60;;
3849;SDS011;1940;51.052;13.678;2023-10-09T05:17:38;15.47;;;8.93;;
3849;SDS011;1940;51.052;13.678;2023-10-09T05:20:05;12.40;;;7.80;;
3849;SDS011;1940;51.052;13.678;2023-10-09T05:22:50;12.37;;;7.53;;
3849;SDS011;1940;51.052;13.678;2023-10-09T05:25:44;13.33;;;8.03;;
3849;SDS011;1940;51.052;13.678;2023-10-09T05:28:18;18.10;;;9.33;;
3849;SDS011;1940;51.052;13.678;2023-10-09T05:30:55;15.43;;;8.43;;
3849;SDS011;1940;51.052;13.678;2023-10-09T05:33:36;15.83;;;9.07;;
3849;SDS011;1940;51.052;13.678;2023-10-09T05:36:03;15.73;;;8.00;;
3849;SDS011;1940;51.052;13.678;2023-10-09T05:38:39;16.90;;;8.63;;
3849;SDS011;1940;51.052;13.678;2023-10-09T05:41:11;13.30;;;8.33;;
3849;SDS011;1940;51.052;13.678;2023-10-09T05:43:55;19.50;;;9.37;;
3849;SDS011;1940;51.052;13.678;2023-10-09T05:46:39;17.40;;;8.97;;
3849;SDS011;1940;51.052;13.678;2023-10-09T05:49:25;20.40;;;9.80;;
3849;SDS011;1940;51.052;13.678;2023-10-09T05:52:10;16.20;;;9.10;;
3849;SDS011;1940;51.052;13.678;2023-10-09T05:54:54;22.80;;;9.77;;
3849;SDS011;1940;51.052;13.678;2023-10-09T05:57:46;14.73;;;9.27;;
3849;SDS011;1940;51.052;13.678;2023-10-09T06:00:31;16.20;;;9.77;;
3849;SDS011;1940;51.052;13.678;2023-10-09T06:03:15;14.47;;;8.60;;
3849;SDS011;1940;51.052;13.678;2023-10-09T06:05:46;17.17;;;9.20;;
3849;SDS011;1940;51.052;13.678;2023-10-09T06:08:19;17.10;;;9.87;;
3849;SDS011;1940;51.052;13.678;2023-10-09T06:11:03;17.30;;;9.50;;
3849;SDS011;1940;51.052;13.678;2023-10-09T06:13:52;15.33;;;9.50;;
3849;SDS011;1940;51.052;13.678;2023-10-09T06:16:29;16.60;;;9.70;;
3849;SDS011;1940;51.052;13.678;2023-10-09T06:19:04;17.67;;;10.53;;
3849;SDS011;1940;51.052;13.678;2023-10-09T06:21:36;19.80;;;9.60;;
3849;SDS011;1940;51.052;13.678;2023-10-09T06:24:24;17.20;;;8.93;;
3849;SDS011;1940;51.052;13.678;2023-10-09T06:27:11;20.93;;;9.63;;
3849;SDS011;1940;51.052;13.678;2023-10-09T06:29:40;17.10;;;9.63;;
3849;SDS011;1940;51.052;13.678;2023-10-09T06:32:10;15.60;;;9.50;;
3849;SDS011;1940;51.052;13.678;2023-10-09T06:34:46;20.77;;;10.37;;
3849;SDS011;1940;51.052;13.678;2023-10-09T06:37:17;16.13;;;9.60;;
3849;SDS011;1940;51.052;13.678;2023-10-09T06:39:49;17.33;;;9.77;;
3849;SDS011;1940;51.052;13.678;2023-10-09T06:42:21;20.43;;;10.10;;
3849;SDS011;1940;51.052;13.678;2023-10-09T06:45:02;20.70;;;11.00;;
3849;SDS011;1940;51.052;13.678;2023-10-09T06:47:41;17.23;;;9.67;;
3849;SDS011;1940;51.052;13.678;2023-10-09T06:50:18;16.27;;;9.77;;
3849;SDS011;1940;51.052;13.678;2023-10-09T06:52:47;15.30;;;9.43;;
3849;SDS011;1940;51.052;13.678;2023-10-09T06:55:25;17.23;;;8.97;;
3849;SDS011;1940;51.052;13.678;2023-10-09T06:57:59;15.80;;;9.13;;
3849;SDS011;1940;51.052;13.678;2023-10-09T07:00:38;16.90;;;9.63;;
3849;SDS011;1940;51.052;13.678;2023-10-09T07:03:23;23.27;;;9.77;;
3849;SDS011;1940;51.052;13.678;2023-10-09T07:06:08;13.73;;;8.60;;
3849;SDS011;1940;51.052;13.678;2023-10-09T07:08:53;15.30;;;8.70;;
3849;SDS011;1940;51.052;13.678;2023-10-09T07:11:41;15.60;;;10.10;;
3849;SDS011;1940;51.052;13.678;2023-10-09T07:16:53;18.70;;;9.23;;
3849;SDS011;1940;51.052;13.678;2023-10-09T07:19:23;19.47;;;9.17;;
3849;SDS011;1940;51.052;13.678;2023-10-09T07:22:04;16.20;;;9.30;;
3849;SDS011;1940;51.052;13.678;2023-10-09T07:24:41;17.40;;;9.43;;
3849;SDS011;1940;51.052;13.678;2023-10-09T07:27:09;16.77;;;8.93;;
3849;SDS011;1940;51.052;13.678;2023-10-09T07:29:39;16.50;;;9.90;;
3849;SDS011;1940;51.052;13.678;2023-10-09T07:32:14;20.23;;;9.43;;
3849;SDS011;1940;51.052;13.678;2023-10-09T07:34:46;16.47;;;9.80;;
3849;SDS011;1940;51.052;13.678;2023-10-09T07:37:17;19.20;;;9.63;;
3849;SDS011;1940;51.052;13.678;2023-10-09T07:39:44;18.97;;;10.80;;
3849;SDS011;1940;51.052;13.678;2023-10-09T07:42:21;21.53;;;9.57;;
3849;SDS011;1940;51.052;13.678;2023-10-09T07:45:06;19.90;;;11.17;;
3849;SDS011;1940;51.052;13.678;2023-10-09T07:47:47;17.20;;;9.90;;
3849;SDS011;1940;51.052;13.678;2023-10-09T07:50:34;19.90;;;10.53;;
3849;SDS011;1940;51.052;13.678;2023-10-09T07:53:06;16.47;;;10.40;;
3849;SDS011;1940;51.052;13.678;2023-10-09T07:55:50;24.80;;;11.20;;
3849;SDS011;1940;51.052;13.678;2023-10-09T07:58:23;24.97;;;12.07;;
3849;SDS011;1940;51.052;13.678;2023-10-09T08:00:55;22.40;;;11.23;;
3849;SDS011;1940;51.052;13.678;2023-10-09T08:03:41;20.33;;;11.83;;
3849;SDS011;1940;51.052;13.678;2023-10-09T08:06:11;19.37;;;12.00;;
3849;SDS011;1940;51.052;13.678;2023-10-09T08:08:59;19.90;;;12.13;;
3849;SDS011;1940;51.052;13.678;2023-10-09T08:11:27;27.30;;;12.23;;
3849;SDS011;1940;51.052;13.678;2023-10-09T08:14:08;24.60;;;13.30;;
3849;SDS011;1940;51.052;13.678;2023-10-09T08:16:52;29.73;;;13.47;;
3849;SDS011;1940;51.052;13.678;2023-10-09T08:19:36;25.87;;;11.60;;
3849;SDS011;1940;51.052;13.678;2023-10-09T08:22:17;29.53;;;11.80;;
3849;SDS011;1940;51.052;13.678;2023-10-09T08:25:03;31.03;;;14.17;;
3849;SDS011;1940;51.052;13.678;2023-10-09T08:27:29;33.60;;;13.40;;
3849;SDS011;1940;51.052;13.678;2023-10-09T08:29:58;29.93;;;15.03;;
3849;SDS011;1940;51.052;13.678;2023-10-09T08:32:53;36.00;;;12.67;;
3849;SDS011;1940;51.052;13.678;2023-10-09T08:35:35;24.90;;;12.40;;
3849;SDS011;1940;51.052;13.678;2023-10-09T08:38:12;31.30;;;12.33;;
3849;SDS011;1940;51.052;13.678;2023-10-09T08:40:41;25.00;;;12.00;;
3849;SDS011;1940;51.052;13.678;2023-10-09T08:43:15;23.67;;;12.07;;
3849;SDS011;1940;51.052;13.678;2023-10-09T08:45:54;26.73;;;13.07;;
3849;SDS011;1940;51.052;13.678;2023-10-09T08:48:27;24.97;;;11.90;;
3849;SDS011;1940;51.052;13.678;2023-10-09T08:50:54;26.87;;;12.03;;
3849;SDS011;1940;51.052;13.678;2023-10-09T08:53:21;23.07;;;12.37;;
3849;SDS011;1940;51.052;13.678;2023-10-09T08:55:49;27.20;;;11.03;;
3849;SDS011;1940;51.052;13.678;2023-10-09T08:58:16;26.20;;;11.77;;
3849;SDS011;1940;51.052;13.678;2023-10-09T09:00:49;21.60;;;10.80;;
3849;SDS011;1940;51.052;13.678;2023-10-09T09:03:16;22.17;;;11.10;;
3849;SDS011;1940;51.052;13.678;2023-10-09T09:05:48;22.70;;;10.83;;
3849;SDS011;1940;51.052;13.678;2023-10-09T09:08:22;24.50;;;11.80;;
3849;SDS011;1940;51.052;13.678;2023-10-09T09:10:56;24.80;;;11.83;;
3849;SDS011;1940;51.052;13.678;2023-10-09T09:13:37;23.33;;;10.80;;
3849;SDS011;1940;51.052;13.678;2023-10-09T09:16:09;21.80;;;11.33;;
3849;SDS011;1940;51.052;13.678;2023-10-09T09:18:56;25.93;;;12.03;;
3849;SDS011;1940;51.052;13.678;2023-10-09T09:21:28;22.30;;;10.70;;
3849;SDS011;1940;51.052;13.678;2023-10-09T09:23:59;20.63;;;10.77;;
3849;SDS011;1940;51.052;13.678;2023-10-09T09:26:36;22.90;;;10.60;;
3849;SDS011;1940;51.052;13.678;2023-10-09T09:29:06;36.03;;;11.70;;
3849;SDS011;1940;51.052;13.678;2023-10-09T09:31:32;28.83;;;12.00;;
3849;SDS011;1940;51.052;13.678;2023-10-09T09:34:06;25.03;;;10.73;;
3849;SDS011;1940;51.052;13.678;2023-10-09T09:36:57;24.70;;;11.00;;
3849;SDS011;1940;51.052;13.678;2023-10-09T09:39:25;20.93;;;10.60;;
3849;SDS011;1940;51.052;13.678;2023-10-09T09:41:56;22.53;;;10.80;;
3849;SDS011;1940;51.052;13.678;2023-10-09T09:44:23;18.23;;;10.50;;
3849;SDS011;1940;51.052;13.678;2023-10-09T09:46:52;25.20;;;11.80;;
3849;SDS011;1940;51.052;13.678;2023-10-09T09:49:20;24.30;;;10.33;;
3849;SDS011;1940;51.052;13.678;2023-10-09T09:51:46;20.10;;;10.23;;
3849;SDS011;1940;51.052;13.678;2023-10-09T09:54:13;18.00;;;9.80;;
3849;SDS011;1940;51.052;13.678;2023-10-09T09:56:41;19.77;;;10.17;;
3849;SDS011;1940;51.052;13.678;2023-10-09T09:59:15;19.77;;;9.63;;
3849;SDS011;1940;51.052;13.678;2023-10-09T10:01:47;19.47;;;9.13;;
3849;SDS011;1940;51.052;13.678;2023-10-09T10:04:31;17.33;;;8.90;;
3849;SDS011;1940;51.052;13.678;2023-10-09T10:07:00;17.37;;;8.93;;
3849;SDS011;1940;51.052;13.678;2023-10-09T10:09:37;17.83;;;8.57;;
3849;SDS011;1940;51.052;13.678;2023-10-09T10:12:07;17.10;;;8.60;;
3849;SDS011;1940;51.052;13.678;2023-10-09T10:15:09;18.30;;;9.03;;
3849;SDS011;1940;51.052;13.678;2023-10-09T10:18:06;14.40;;;9.00;;
3849;SDS011;1940;51.052;13.678;2023-10-09T10:20:32;19.10;;;7.97;;
3849;SDS011;1940;51.052;13.678;2023-10-09T10:23:18;14.67;;;7.43;;
3849;SDS011;1940;51.052;13.678;2023-10-09T10:25:44;14.90;;;8.33;;
3849;SDS011;1940;51.052;13.678;2023-10-09T10:31:04;15.53;;;7.83;;
3849;SDS011;1940;51.052;13.678;2023-10-09T10:36:18;12.87;;;7.57;;
3849;SDS011;1940;51.052;13.678;2023-10-09T10:38:47;16.57;;;8.60;;
3849;SDS011;1940;51.052;13.678;2023-10-09T10:41:54;14.97;;;8.20;;
3849;SDS011;1940;51.052;13.678;2023-10-09T10:44:27;19.73;;;10.50;;
3849;SDS011;1940;51.052;13.678;2023-10-09T10:47:07;15.80;;;8.90;;
3849;SDS011;1940;51.052;13.678;2023-10-09T10:49:47;19.77;;;9.53;;
3849;SDS011;1940;51.052;13.678;2023-10-09T10:52:23;16.90;;;9.03;;
3849;SDS011;1940;51.052;13.678;2023-10-09T10:55:09;20.63;;;9.20;;
3849;SDS011;1940;51.052;13.678;2023-10-09T10:57:44;16.43;;;9.00;;
3849;SDS011;1940;51.052;13.678;2023-10-09T11:00:19;15.93;;;8.70;;
3849;SDS011;1940;51.052;13.678;2023-10-09T11:03:03;16.90;;;9.13;;
3849;SDS011;1940;51.052;13.678;2023-10-09T11:05:42;16.20;;;8.83;;
3849;SDS011;1940;51.052;13.678;2023-10-09T11:08:11;17.23;;;9.53;;
3849;SDS011;1940;51.052;13.678;2023-10-09T11:10:37;18.60;;;10.33;;
3849;SDS011;1940;51.052;13.678;2023-10-09T11:13:24;21.77;;;9.93;;
3849;SDS011;1940;51.052;13.678;2023-10-09T11:15:58;22.20;;;9.90;;
3849;SDS011;1940;51.052;13.678;2023-10-09T11:19:02;19.20;;;10.20;;
3849;SDS011;1940;51.052;13.678;2023-10-09T11:21:38;17.23;;;9.60;;
3849;SDS011;1940;51.052;13.678;2023-10-09T11:24:07;18.40;;;9.47;;
3849;SDS011;1940;51.052;13.678;2023-10-09T11:26:52;17.00;;;9.60;;
3849;SDS011;1940;51.052;13.678;2023-10-09T11:29:21;16.07;;;10.57;;
3849;SDS011;1940;51.052;13.678;2023-10-09T11:32:01;17.87;;;9.30;;
3849;SDS011;1940;51.052;13.678;2023-10-09T11:34:32;16.03;;;10.30;;
3849;SDS011;1940;51.052;13.678;2023-10-09T11:37:03;19.47;;;9.93;;
3849;SDS011;1940;51.052;13.678;2023-10-09T11:39:50;17.53;;;9.90;;
3849;SDS011;1940;51.052;13.678;2023-10-09T11:42:17;24.40;;;12.50;;
3849;SDS011;1940;51.052;13.678;2023-10-09T11:45:01;25.27;;;13.87;;
3849;SDS011;1940;51.052;13.678;2023-10-09T11:47:44;20.57;;;12.73;;
3849;SDS011;1940;51.052;13.678;2023-10-09T11:50:21;24.00;;;12.60;;
3849;SDS011;1940;51.052;13.678;2023-10-09T11:53:15;25.73;;;12.67;;
3849;SDS011;1940;51.052;13.678;2023-10-09T11:55:47;18.57;;;12.80;;
3849;SDS011;1940;51.052;13.678;2023-10-09T11:58:17;27.87;;;13.30;;
3849;SDS011;1940;51.052;13.678;2023-10-09T12:00:50;23.80;;;12.50;;
3849;SDS011;1940;51.052;13.678;2023-10-09T12:03:28;21.53;;;12.73;;
3849;SDS011;1940;51.052;13.678;2023-10-09T12:05:56;27.27;;;14.37;;
3849;SDS011;1940;51.052;13.678;2023-10-09T12:08:23;29.30;;;12.80;;
3849;SDS011;1940;51.052;13.678;2023-10-09T12:10:51;22.13;;;12.17;;
3849;SDS011;1940;51.052;13.678;2023-10-09T12:13:20;25.93;;;13.53;;
3849;SDS011;1940;51.052;13.678;2023-10-09T12:15:47;24.33;;;12.33;;
3849;SDS011;1940;51.052;13.678;2023-10-09T12:18:13;22.47;;;11.37;;
3849;SDS011;1940;51.052;13.678;2023-10-09T12:20:43;22.20;;;12.30;;
3849;SDS011;1940;51.052;13.678;2023-10-09T12:23:15;25.53;;;11.70;;
3849;SDS011;1940;51.052;13.678;2023-10-09T12:25:45;22.50;;;11.53;;
3849;SDS011;1940;51.052;13.678;2023-10-09T12:28:13;22.83;;;11.43;;
3849;SDS011;1940;51.052;13.678;2023-10-09T12:30:39;20.50;;;11.40;;
3849;SDS011;1940;51.052;13.678;2023-10-09T12:33:05;20.97;;;11.87;;
3849;SDS011;1940;51.052;13.678;2023-10-09T12:35:35;24.53;;;11.50;;
3849;SDS011;1940;51.052;13.678;2023-10-09T12:38:04;27.13;;;11.57;;
3849;SDS011;1940;51.052;13.678;2023-10-09T12:40:35;22.00;;;11.90;;
3849;SDS011;1940;51.052;13.678;2023-10-09T12:43:01;21.20;;;11.83;;
3849;SDS011;1940;51.052;13.678;2023-10-09T12:45:27;21.20;;;11.80;;
3849;SDS011;1940;51.052;13.678;2023-10-09T12:47:57;22.70;;;12.30;;
3849;SDS011;1940;51.052;13.678;2023-10-09T12:50:28;24.73;;;13.40;;
3849;SDS011;1940;51.052;13.678;2023-10-09T12:52:58;21.13;;;11.13;;
3849;SDS011;1940;51.052;13.678;2023-10-09T12:55:38;22.03;;;12.87;;
3849;SDS011;1940;51.052;13.678;2023-10-09T12:58:06;25.90;;;11.37;;
3849;SDS011;1940;51.052;13.678;2023-10-09T13:00:36;26.10;;;12.83;;
3849;SDS011;1940;51.052;13.678;2023-10-09T13:03:05;22.87;;;12.27;;
3849;SDS011;1940;51.052;13.678;2023-10-09T13:05:42;24.23;;;13.20;;
3849;SDS011;1940;51.052;13.678;2023-10-09T13:08:19;21.63;;;12.40;;
3849;SDS011;1940;51.052;13.678;2023-10-09T13:10:47;31.23;;;14.23;;
3849;SDS011;1940;51.052;13.678;2023-10-09T13:13:28;23.90;;;13.10;;
3849;SDS011;1940;51.052;13.678;2023-10-09T13:16:05;20.90;;;11.20;;
3849;SDS011;1940;51.052;13.678;2023-10-09T13:18:50;21.63;;;10.77;;
3849;SDS011;1940;51.052;13.678;2023-10-09T13:21:17;21.40;;;11.20;;
3849;SDS011;1940;51.052;13.678;2023-10-09T13:23:43;18.93;;;10.10;;
3849;SDS011;1940;51.052;13.678;2023-10-09T13:26:12;19.50;;;10.07;;
3849;SDS011;1940;51.052;13.678;2023-10-09T13:28:53;17.23;;;10.67;;
3849;SDS011;1940;51.052;13.678;2023-10-09T13:31:20;22.00;;;11.03;;
3849;SDS011;1940;51.052;13.678;2023-10-09T13:33:46;19.40;;;10.97;;
3849;SDS011;1940;51.052;13.678;2023-10-09T13:36:13;24.53;;;11.17;;
3849;SDS011;1940;51.052;13.678;2023-10-09T13:38:44;24.27;;;12.63;;
3849;SDS011;1940;51.052;13.678;2023-10-09T13:41:11;21.17;;;11.23;;
3849;SDS011;1940;51.052;13.678;2023-10-09T13:43:40;21.23;;;11.10;;
3849;SDS011;1940;51.052;13.678;2023-10-09T13:46:10;25.50;;;12.03;;
3849;SDS011;1940;51.052;13.678;2023-10-09T13:48:37;23.53;;;12.40;;
3849;SDS011;1940;51.052;13.678;2023-10-09T13:51:06;23.97;;;12.30;;
3849;SDS011;1940;51.052;13.678;2023-10-09T13:53:34;24.57;;;12.33;;
3849;SDS011;1940;51.052;13.678;2023-10-09T13:56:01;22.70;;;12.07;;
3849;SDS011;1940;51.052;13.678;2023-10-09T13:58:27;25.10;;;13.77;;
3849;SDS011;1940;51.052;13.678;2023-10-09T14:00:53;26.17;;;13.83;;
3849;SDS011;1940;51.052;13.678;2023-10-09T14:03:18;20.53;;;12.07;;
3849;SDS011;1940;51.052;13.678;2023-10-09T14:05:48;26.07;;;12.57;;
3849;SDS011;1940;51.052;13.678;2023-10-09T14:08:20;15.67;;;10.20;;
3849;SDS011;1940;51.052;13.678;2023-10-09T14:10:47;12.53;;;8.83;;
3849;SDS011;1940;51.052;13.678;2023-10-09T14:13:14;14.80;;;9.13;;
3849;SDS011;1940;51.052;13.678;2023-10-09T14:15:41;11.97;;;8.60;;
3849;SDS011;1940;51.052;13.678;2023-10-09T14:18:08;13.30;;;9.00;;
3849;SDS011;1940;51.052;13.678;2023-10-09T14:20:36;14.57;;;10.57;;
3849;SDS011;1940;51.052;13.678;2023-10-09T14:23:02;12.97;;;8.17;;
3849;SDS011;1940;51.052;13.678;2023-10-09T14:25:34;18.17;;;9.93;;
3849;SDS011;1940;51.052;13.678;2023-10-09T14:28:03;14.10;;;9.50;;
3849;SDS011;1940;51.052;13.678;2023-10-09T14:30:32;13.40;;;9.40;;
3849;SDS011;1940;51.052;13.678;2023-10-09T14:33:13;16.33;;;9.00;;
3849;SDS011;1940;51.052;13.678;2023-10-09T14:35:41;12.73;;;7.60;;
3849;SDS011;1940;51.052;13.678;2023-10-09T14:38:08;13.33;;;9.37;;
3849;SDS011;1940;51.052;13.678;2023-10-09T14:40:40;13.73;;;8.63;;
3849;SDS011;1940;51.052;13.678;2023-10-09T14:43:09;13.50;;;8.97;;
3849;SDS011;1940;51.052;13.678;2023-10-09T14:45:47;11.67;;;8.43;;
3849;SDS011;1940;51.052;13.678;2023-10-09T14:48:18;16.50;;;10.57;;
3849;SDS011;1940;51.052;13.678;2023-10-09T14:50:50;15.53;;;10.90;;
3849;SDS011;1940;51.052;13.678;2023-10-09T14:53:19;17.33;;;11.97;;
3849;SDS011;1940;51.052;13.678;2023-10-09T14:55:46;20.37;;;11.90;;
3849;SDS011;1940;51.052;13.678;2023-10-09T14:58:13;16.80;;;11.37;;
3849;SDS011;1940;51.052;13.678;2023-10-09T15:00:38;14.37;;;10.10;;
3849;SDS011;1940;51.052;13.678;2023-10-09T15:03:11;18.30;;;10.30;;
3849;SDS011;1940;51.052;13.678;2023-10-09T15:05:42;12.70;;;8.40;;
3849;SDS011;1940;51.052;13.678;2023-10-09T15:08:08;14.50;;;8.20;;
3849;SDS011;1940;51.052;13.678;2023-10-09T15:10:49;13.67;;;8.30;;
3849;SDS011;1940;51.052;13.678;2023-10-09T15:13:16;18.30;;;8.47;;
3849;SDS011;1940;51.052;13.678;2023-10-09T15:15:45;13.20;;;8.03;;
3849;SDS011;1940;51.052;13.678;2023-10-09T15:18:16;11.67;;;7.50;;
3849;SDS011;1940;51.052;13.678;2023-10-09T15:20:43;11.60;;;7.70;;
3849;SDS011;1940;51.052;13.678;2023-10-09T15:23:10;15.33;;;9.00;;
3849;SDS011;1940;51.052;13.678;2023-10-09T15:25:35;17.43;;;8.70;;
3849;SDS011;1940;51.052;13.678;2023-10-09T15:28:04;15.83;;;8.87;;
3849;SDS011;1940;51.052;13.678;2023-10-09T15:30:32;13.10;;;8.57;;
3849;SDS011;1940;51.052;13.678;2023-10-09T15:32:58;17.50;;;8.77;;